Time;durP1;ratioP1;P1;durP2;ratioP2;P2;SDS_P1;SDS_P2;PMS_P1;PMS_P2;Temp;Humidity;BMP_temperature;BMP_pressure;BME280_temperature;BME280_humidity;BME280_pressure;Samples;Min_cycle;Max_cycle;Signal;HPM_P1;HPM_P2
2023/03/23 00:01:06;;;;;;;0.30;0.30;;;;;;;19.27;45.30;100073.97;5106869;28;20035;-37
2023/03/23 00:03:31;;;;;;;0.30;0.30;;;;;;;19.27;45.32;100057.41;5096683;28;20039;-37
2023/03/23 00:06:05;;;;;;;0.20;0.20;;;;;;;19.27;45.35;100054.66;5115035;28;20043;-37
2023/03/23 00:08:33;;;;;;;0.20;0.20;;;;;;;19.27;45.41;100060.16;5115627;28;20082;-37
2023/03/23 00:11:00;;;;;;;0.30;0.30;;;;;;;19.26;45.42;100064.06;5093443;28;20043;-37
2023/03/23 00:13:28;;;;;;;0.20;0.20;;;;;;;19.27;45.23;100060.16;5120116;27;20047;-37
2023/03/23 00:15:54;;;;;;;0.30;0.30;;;;;;;19.28;45.43;100056.28;5136244;27;20042;-37
2023/03/23 00:18:22;;;;;;;0.30;0.30;;;;;;;19.27;45.26;100065.69;5114375;27;20074;-37
2023/03/23 00:20:49;;;;;;;0.20;0.20;;;;;;;19.27;45.41;100054.66;5094729;28;20433;-37
2023/03/23 00:23:18;;;;;;;0.20;0.20;;;;;;;19.27;45.50;100057.41;5098559;28;20511;-37
2023/03/23 00:25:45;;;;;;;0.20;0.20;;;;;;;19.27;45.43;100048.31;5100962;28;20346;-37
2023/03/23 00:28:12;;;;;;;0.20;0.20;;;;;;;19.26;45.46;100053.00;5083570;28;20059;-37
2023/03/23 00:30:38;;;;;;;0.20;0.20;;;;;;;19.27;45.01;100038.09;5118315;28;20054;-36
2023/03/23 00:33:04;;;;;;;0.20;0.20;;;;;;;19.27;45.26;100040.03;5118938;27;20035;-37
2023/03/23 00:35:30;;;;;;;0.20;0.20;;;;;;;19.26;45.52;100041.16;5118223;28;20039;-37
2023/03/23 00:37:56;;;;;;;0.20;0.20;;;;;;;19.27;45.24;100045.56;5119113;28;20053;-37
2023/03/23 00:40:21;;;;;;;0.20;0.20;;;;;;;19.25;45.63;100048.59;5100150;28;20539;-37
2023/03/23 00:42:48;;;;;;;0.30;0.30;;;;;;;19.26;45.36;100052.19;5118009;28;20487;-37
2023/03/23 00:45:14;;;;;;;0.28;0.28;;;;;;;19.27;45.15;100053.84;5077954;28;20447;-37
2023/03/23 00:47:41;;;;;;;0.20;0.20;;;;;;;19.25;45.43;100045.84;5078145;28;20028;-37
2023/03/23 00:50:07;;;;;;;0.20;0.20;;;;;;;19.26;45.54;100043.91;5097416;28;20043;-37
2023/03/23 00:52:32;;;;;;;0.20;0.20;;;;;;;19.26;45.36;100039.22;5118653;28;20590;-37
2023/03/23 00:54:58;;;;;;;0.20;0.20;;;;;;;19.25;45.26;100037.56;5117613;28;20031;-36
2023/03/23 00:57:25;;;;;;;0.20;0.20;;;;;;;19.26;45.54;100039.22;5118725;28;20160;-37
2023/03/23 00:59:51;;;;;;;0.20;0.20;;;;;;;19.25;45.19;100028.44;5118530;28;20032;-37
2023/03/23 01:02:17;;;;;;;0.30;0.30;;;;;;;19.26;45.54;100030.13;5118489;28;20047;-37
2023/03/23 01:04:46;;;;;;;0.22;0.22;;;;;;;19.24;45.30;100030.41;5118443;28;20352;-37
2023/03/23 01:07:12;;;;;;;0.28;0.28;;;;;;;19.26;45.37;100041.16;5116976;28;20055;-37
2023/03/23 01:09:39;;;;;;;0.20;0.20;;;;;;;19.26;45.47;100046.69;5118430;28;20035;-37
2023/03/23 01:12:05;;;;;;;0.20;0.20;;;;;;;19.25;45.21;100058.81;5105060;27;20046;-37
2023/03/23 01:14:31;;;;;;;0.28;0.28;;;;;;;19.25;45.31;100042.25;5138486;27;20566;-37
2023/03/23 01:16:56;;;;;;;0.30;0.30;;;;;;;19.25;45.34;100045.84;5119852;27;20339;-36
2023/03/23 01:19:22;;;;;;;0.25;0.25;;;;;;;19.25;45.42;100039.50;5127523;27;20031;-37
2023/03/23 01:21:47;;;;;;;0.30;0.30;;;;;;;19.25;45.45;100028.44;5096142;28;20051;-37
2023/03/23 01:24:12;;;;;;;0.20;0.20;;;;;;;19.23;45.16;100037.06;5096210;28;20405;-37
2023/03/23 01:26:38;;;;;;;0.30;0.30;;;;;;;19.23;45.21;100039.81;5100575;28;20051;-37
2023/03/23 01:29:03;;;;;;;0.30;0.30;;;;;;;19.25;45.19;100045.00;5117220;28;20096;-37
2023/03/23 01:31:29;;;;;;;0.30;0.30;;;;;;;19.25;45.30;100043.06;5117660;27;20472;-37
2023/03/23 01:33:55;;;;;;;0.20;0.20;;;;;;;19.23;45.44;100045.34;5099362;28;20092;-37
2023/03/23 01:36:26;;;;;;;0.30;0.30;;;;;;;19.24;45.32;100021.31;5117789;28;20435;-37
2023/03/23 01:38:51;;;;;;;0.30;0.30;;;;;;;19.23;45.39;100003.09;5098801;28;20043;-37
2023/03/23 01:41:18;;;;;;;0.20;0.20;;;;;;;19.22;45.32;100009.75;5099452;28;20039;-37
2023/03/23 01:44:05;;;;;;;0.30;0.30;;;;;;;19.23;45.32;100009.44;5082611;28;20035;-37
2023/03/23 01:46:33;;;;;;;0.20;0.20;;;;;;;19.23;45.46;100011.38;5085128;28;20051;-37
2023/03/23 01:49:06;;;;;;;0.32;0.32;;;;;;;19.22;45.55;100007.81;5099307;28;20181;-36
2023/03/23 01:51:33;;;;;;;0.20;0.20;;;;;;;19.23;45.22;99981.84;5099962;28;20359;-37
2023/03/23 01:54:03;;;;;;;0.20;0.20;;;;;;;19.23;45.42;99983.78;5116839;28;20074;-36
2023/03/23 01:56:32;;;;;;;0.20;0.20;;;;;;;19.22;45.53;99958.13;5117662;28;20372;-36
2023/03/23 01:58:58;;;;;;;0.30;0.30;;;;;;;19.22;45.31;99941.56;5098844;28;20407;-37
2023/03/23 02:01:24;;;;;;;0.30;0.30;;;;;;;19.22;45.61;99951.78;5117655;28;20352;-37
2023/03/23 02:03:52;;;;;;;0.20;0.20;;;;;;;19.22;45.26;99946.28;5099139;28;20043;-37
2023/03/23 02:06:17;;;;;;;0.20;0.20;;;;;;;19.21;45.41;99964.78;5081521;28;20051;-37
2023/03/23 02:08:43;;;;;;;0.30;0.30;;;;;;;19.22;45.53;99996.78;5117152;28;20074;-37
2023/03/23 02:11:18;;;;;;;0.20;0.20;;;;;;;19.23;45.37;99994.81;5111674;28;20127;-37
2023/03/23 02:13:44;;;;;;;0.20;0.20;;;;;;;19.23;45.23;99978.25;5099086;28;20039;-37
2023/03/23 02:16:34;;;;;;;0.20;0.20;;;;;;;19.23;45.19;99968.03;5098672;28;20427;-37
2023/03/23 02:19:40;;;;;;;0.22;0.22;;;;;;;19.21;45.42;99959.25;5094777;28;20372;-37
2023/03/23 02:24:57;;;;;;;0.30;0.30;;;;;;;19.21;45.53;99950.97;5175369;27;20115;-37
2023/03/23 02:27:36;;;;;;;0.20;0.20;;;;;;;19.21;45.56;99948.22;5134948;27;20257;-37
2023/03/23 02:30:18;;;;;;;0.20;0.20;;;;;;;19.21;45.44;99939.94;5152141;27;20046;-37
2023/03/23 02:33:15;;;;;;;0.20;0.20;;;;;;;19.22;45.21;99960.06;5136469;27;20486;-37
2023/03/23 02:35:47;;;;;;;0.20;0.20;;;;;;;19.21;45.27;99944.63;5117371;27;20526;-37
2023/03/23 02:38:16;;;;;;;0.20;0.20;;;;;;;19.21;45.29;99948.22;5132527;27;20420;-37
2023/03/23 02:40:44;;;;;;;0.20;0.20;;;;;;;19.21;45.37;99953.75;5097190;27;20038;-37
2023/03/23 02:43:13;;;;;;;0.30;0.30;;;;;;;19.20;45.24;99946.56;5124706;27;20066;-37
2023/03/23 02:45:39;;;;;;;0.30;0.30;;;;;;;19.21;45.15;99947.38;5132819;27;20047;-37
2023/03/23 02:48:06;;;;;;;0.30;0.30;;;;;;;19.21;45.35;99941.84;5132447;27;20122;-37
2023/03/23 02:50:32;;;;;;;0.20;0.20;;;;;;;19.20;45.68;99949.31;5112194;27;20046;-37
2023/03/23 02:52:58;;;;;;;0.30;0.30;;;;;;;19.20;45.18;99957.59;5111306;28;20525;-37
2023/03/23 02:55:24;;;;;;;0.25;0.25;;;;;;;19.21;45.35;99962.03;5112299;28;20063;-36
2023/03/23 02:57:50;;;;;;;0.20;0.20;;;;;;;19.21;45.44;99950.13;5111972;28;20063;-37
2023/03/23 03:00:16;;;;;;;0.30;0.30;;;;;;;19.21;45.27;99950.13;5111813;27;20043;-37
2023/03/23 03:02:44;;;;;;;0.30;0.30;;;;;;;19.21;45.24;99958.41;5111889;28;20027;-36
2023/03/23 03:05:30;;;;;;;0.30;0.30;;;;;;;19.21;45.53;99975.81;5093064;28;20047;-37
2023/03/23 03:08:01;;;;;;;0.20;0.20;;;;;;;19.19;45.50;99958.72;5111527;28;20045;-36
2023/03/23 03:10:40;;;;;;;0.20;0.20;;;;;;;19.20;45.34;99951.25;5126674;27;20042;-37
2023/03/23 03:13:18;;;;;;;0.20;0.20;;;;;;;19.20;45.36;99945.75;5153164;27;20034;-37
2023/03/23 03:15:48;;;;;;;0.20;0.20;;;;;;;19.20;45.21;99945.75;5152697;27;20505;-37
2023/03/23 03:18:22;;;;;;;0.30;0.30;;;;;;;19.20;45.24;99941.03;5149332;27;20041;-37
2023/03/23 03:20:50;;;;;;;0.22;0.22;;;;;;;19.19;45.26;99947.69;5093385;28;20059;-37
2023/03/23 03:23:16;;;;;;;0.20;0.20;;;;;;;19.19;45.44;99950.44;5093130;28;20032;-36
2023/03/23 03:25:47;;;;;;;0.20;0.20;;;;;;;19.20;45.41;99951.25;5093601;28;20493;-37
2023/03/23 03:28:16;;;;;;;0.20;0.20;;;;;;;19.19;45.13;99942.16;5093433;27;20036;-37
2023/03/23 03:30:43;;;;;;;0.20;0.20;;;;;;;19.19;45.39;99933.06;5102128;27;20051;-37
2023/03/23 03:33:11;;;;;;;0.20;0.20;;;;;;;19.19;45.23;99939.41;5110125;28;20077;-37
2023/03/23 03:35:37;;;;;;;0.20;0.20;;;;;;;19.20;45.49;99937.47;5101825;28;20120;-37
2023/03/23 03:38:07;;;;;;;0.20;0.20;;;;;;;19.19;45.43;99944.94;5079422;28;20123;-37
2023/03/23 03:40:32;;;;;;;0.20;0.20;;;;;;;19.19;45.49;99942.16;5086248;28;20051;-37
2023/03/23 03:42:58;;;;;;;0.30;0.30;;;;;;;19.19;45.17;99941.34;5117154;28;20035;-37
2023/03/23 03:45:23;;;;;;;0.20;0.20;;;;;;;19.19;45.51;99952.41;5118197;28;20433;-37
2023/03/23 03:47:48;;;;;;;0.20;0.20;;;;;;;19.19;45.43;99936.66;5117572;28;20305;-37
2023/03/23 03:50:14;;;;;;;0.40;0.40;;;;;;;19.18;45.19;99943.31;5099638;28;20066;-37
2023/03/23 03:52:40;;;;;;;0.20;0.20;;;;;;;19.19;45.23;99928.38;5097272;28;20176;-37
2023/03/23 03:55:06;;;;;;;0.20;0.20;;;;;;;19.19;45.13;99936.66;5078667;28;20042;-37
2023/03/23 03:57:33;;;;;;;0.20;0.20;;;;;;;19.18;45.24;99935.03;5097388;28;20402;-37
2023/03/23 03:59:58;;;;;;;0.30;0.30;;;;;;;19.19;45.26;99953.22;5096886;28;20039;-37
2023/03/23 04:02:23;;;;;;;0.20;0.20;;;;;;;19.18;45.40;99942.47;5097252;28;20066;-37
2023/03/23 04:04:49;;;;;;;0.20;0.20;;;;;;;19.18;45.36;99937.78;5096932;28;20050;-37
2023/03/23 04:07:17;;;;;;;0.20;0.20;;;;;;;19.18;45.34;99937.78;5062488;28;20512;-37
2023/03/23 04:09:46;;;;;;;0.20;0.20;;;;;;;19.18;45.52;99935.03;5091399;28;20126;-37
2023/03/23 04:12:12;;;;;;;0.20;0.20;;;;;;;19.18;45.41;99934.19;5115254;27;20735;-37
2023/03/23 04:14:37;;;;;;;0.20;0.20;;;;;;;19.17;45.37;99935.31;5138269;27;20057;-37
2023/03/23 04:17:02;;;;;;;0.20;0.20;;;;;;;19.17;45.12;99941.66;5137926;27;20477;-37
2023/03/23 04:19:28;;;;;;;0.20;0.20;;;;;;;19.17;45.45;99933.38;5113422;27;20039;-37
2023/03/23 04:21:54;;;;;;;0.20;0.20;;;;;;;19.18;45.36;99939.72;5097125;28;20126;-37
2023/03/23 04:24:21;;;;;;;0.30;0.30;;;;;;;19.18;45.54;99936.97;5096922;28;20038;-37
2023/03/23 04:26:46;;;;;;;0.30;0.30;;;;;;;19.18;45.45;99942.47;5097300;28;20043;-37
2023/03/23 04:29:12;;;;;;;0.20;0.20;;;;;;;19.17;45.16;99955.47;5077802;28;20519;-37
2023/03/23 04:31:38;;;;;;;0.20;0.20;;;;;;;19.17;45.54;99951.88;5096639;28;20116;-37
2023/03/23 04:34:04;;;;;;;0.20;0.20;;;;;;;19.17;45.32;99955.47;5116843;28;20120;-37
2023/03/23 04:36:29;;;;;;;0.30;0.30;;;;;;;19.16;45.26;99967.59;5117341;27;20046;-37
2023/03/23 04:38:55;;;;;;;0.20;0.20;;;;;;;19.16;45.55;99962.09;5110387;27;20139;-36
2023/03/23 04:41:22;;;;;;;0.20;0.20;;;;;;;19.17;45.28;99971.19;5077706;28;20402;-37
2023/03/23 04:43:52;;;;;;;0.30;0.30;;;;;;;19.18;45.16;99967.31;5078021;28;20036;-37
2023/03/23 04:46:19;;;;;;;0.20;0.20;;;;;;;19.16;45.34;99964.84;5107502;27;20556;-37
2023/03/23 04:48:44;;;;;;;0.20;0.20;;;;;;;19.17;45.63;99969.28;5099076;28;20035;-37
2023/03/23 04:51:11;;;;;;;0.30;0.30;;;;;;;19.16;45.56;99978.66;5097726;28;20131;-37
2023/03/23 04:53:37;;;;;;;0.20;0.20;;;;;;;19.16;45.58;99975.88;5116286;28;20075;-37
2023/03/23 04:56:03;;;;;;;0.20;0.20;;;;;;;19.17;45.36;99968.44;5116833;28;20135;-36
2023/03/23 04:58:28;;;;;;;0.20;0.20;;;;;;;19.16;45.31;99969.56;5117079;28;20095;-37
2023/03/23 05:00:55;;;;;;;0.20;0.20;;;;;;;19.17;45.13;99968.44;5117002;28;20047;-37
2023/03/23 05:03:20;;;;;;;0.30;0.30;;;;;;;19.16;45.44;99978.66;5098212;28;20031;-37
2023/03/23 05:05:51;;;;;;;0.30;0.30;;;;;;;19.15;45.26;99977.03;5115980;28;20406;-37
2023/03/23 05:08:21;;;;;;;0.20;0.20;;;;;;;19.17;45.25;99971.19;5098684;28;20051;-37
2023/03/23 05:10:56;;;;;;;0.28;0.28;;;;;;;19.16;45.16;99978.66;5094895;28;20032;-37
2023/03/23 05:13:21;;;;;;;0.20;0.20;;;;;;;19.16;45.48;99984.16;5096098;28;20059;-36
2023/03/23 05:15:47;;;;;;;0.20;0.20;;;;;;;19.16;45.24;99983.34;5077828;28;20047;-37
2023/03/23 05:18:12;;;;;;;0.20;0.20;;;;;;;19.16;45.61;99977.84;5077276;28;20052;-37
2023/03/23 05:20:38;;;;;;;0.20;0.20;;;;;;;19.15;45.30;99977.03;5096228;28;20051;-37
2023/03/23 05:23:05;;;;;;;0.20;0.20;;;;;;;19.16;45.31;99981.41;5095528;28;20039;-36
2023/03/23 05:25:32;;;;;;;0.20;0.20;;;;;;;19.16;45.41;99984.16;5095771;28;20100;-37
2023/03/23 05:27:58;;;;;;;0.20;0.20;;;;;;;19.15;45.36;99988.06;5095979;28;20101;-37
2023/03/23 05:30:24;;;;;;;0.20;0.20;;;;;;;19.16;45.51;99992.44;5095455;28;20067;-37
2023/03/23 05:32:50;;;;;;;0.20;0.20;;;;;;;19.16;45.36;99988.88;5077454;28;20146;-37
2023/03/23 05:35:17;;;;;;;0.20;0.20;;;;;;;19.16;45.35;99992.44;5110749;28;20501;-39
2023/03/23 05:37:43;;;;;;;0.20;0.20;;;;;;;19.15;45.45;99990.81;5097783;28;20031;-37
2023/03/23 05:40:11;;;;;;;0.20;0.20;;;;;;;19.15;45.17;99988.06;5083507;28;20035;-37
2023/03/23 05:42:37;;;;;;;0.20;0.20;;;;;;;19.16;45.29;99994.41;5060342;28;20047;-37
2023/03/23 05:45:03;;;;;;;0.20;0.20;;;;;;;19.15;45.48;99995.53;5063948;28;20467;-37
2023/03/23 05:47:30;;;;;;;0.20;0.20;;;;;;;19.15;45.38;99990.00;5115692;28;20368;-37
2023/03/23 05:49:55;;;;;;;0.30;0.30;;;;;;;19.15;45.29;99993.56;5115813;28;20031;-37
2023/03/23 05:52:21;;;;;;;0.20;0.20;;;;;;;19.15;45.20;99996.34;5097812;28;20039;-37
2023/03/23 05:54:46;;;;;;;0.30;0.30;;;;;;;19.15;45.50;99999.09;5109215;28;20043;-37
2023/03/23 05:57:12;;;;;;;0.20;0.20;;;;;;;19.15;45.20;99996.34;5102172;27;20043;-37
2023/03/23 05:59:37;;;;;;;0.30;0.30;;;;;;;19.15;45.38;99996.34;5108292;28;20273;-37
2023/03/23 06:02:04;;;;;;;0.20;0.20;;;;;;;19.16;45.21;99999.91;5094278;28;20122;-37
2023/03/23 06:04:29;;;;;;;0.30;0.30;;;;;;;19.14;45.35;99993.88;5091104;28;20047;-37
2023/03/23 06:06:54;;;;;;;0.30;0.30;;;;;;;19.15;45.36;100003.81;5108635;28;20039;-37
2023/03/23 06:09:20;;;;;;;0.20;0.20;;;;;;;19.14;45.32;100008.50;5108059;27;20042;-37
2023/03/23 06:11:47;;;;;;;0.20;0.20;;;;;;;19.14;45.18;100008.50;5108874;28;20271;-37
2023/03/23 06:14:13;;;;;;;0.28;0.28;;;;;;;19.14;45.32;100021.50;5079039;28;20107;-37
2023/03/23 06:16:38;;;;;;;0.20;0.20;;;;;;;19.14;45.27;100010.44;5112326;28;20039;-37
2023/03/23 06:19:03;;;;;;;0.25;0.25;;;;;;;19.14;45.41;100010.44;5102409;28;20045;-37
2023/03/23 06:21:30;;;;;;;0.25;0.25;;;;;;;19.14;45.53;100008.50;5112293;28;20534;-37
2023/03/23 06:23:56;;;;;;;0.30;0.30;;;;;;;19.14;45.72;100016.78;5088455;28;20058;-37
2023/03/23 06:26:31;;;;;;;0.30;0.30;;;;;;;19.14;45.36;100018.72;5110914;28;20134;-36
2023/03/23 06:28:57;;;;;;;0.30;0.30;;;;;;;19.14;45.23;100015.97;5098630;28;20480;-41
2023/03/23 06:31:23;;;;;;;0.20;0.20;;;;;;;19.14;45.44;100015.97;5109958;28;20433;-37
2023/03/23 06:33:48;;;;;;;0.20;0.20;;;;;;;19.14;45.23;100022.31;5087895;28;20650;-37
2023/03/23 06:36:13;;;;;;;0.20;0.20;;;;;;;19.14;45.25;100022.31;5091724;28;20035;-37
2023/03/23 06:38:39;;;;;;;0.30;0.30;;;;;;;19.14;45.28;100030.59;5104221;28;20100;-37
2023/03/23 06:41:05;;;;;;;0.30;0.30;;;;;;;19.13;45.36;100020.69;5109232;28;20042;-37
2023/03/23 06:43:30;;;;;;;0.22;0.22;;;;;;;19.13;45.23;100028.94;5106611;28;20539;-37
2023/03/23 06:46:00;;;;;;;0.20;0.20;;;;;;;19.14;45.52;100033.34;5088833;28;20035;-37
2023/03/23 06:48:25;;;;;;;0.30;0.30;;;;;;;19.13;45.45;100034.47;5091156;28;20039;-37
2023/03/23 06:50:51;;;;;;;0.30;0.30;;;;;;;19.14;45.32;100029.78;5098429;28;20302;-37
2023/03/23 06:53:16;;;;;;;0.30;0.30;;;;;;;19.14;45.49;100038.06;5105592;28;20052;-37
2023/03/23 06:55:43;;;;;;;0.30;0.30;;;;;;;19.14;45.46;100035.28;5101536;28;20039;-37
2023/03/23 06:58:09;;;;;;;0.30;0.30;;;;;;;19.14;45.31;100040.81;5076179;28;20039;-37
2023/03/23 07:00:34;;;;;;;0.20;0.20;;;;;;;19.14;45.35;100043.56;5100794;28;20027;-37
2023/03/23 07:02:59;;;;;;;0.22;0.22;;;;;;;19.13;45.48;100045.50;5086730;28;20127;-37
2023/03/23 07:05:26;;;;;;;0.30;0.30;;;;;;;19.14;45.41;100038.06;5098503;28;20035;-37
2023/03/23 07:07:51;;;;;;;0.30;0.30;;;;;;;19.13;45.51;100039.16;5101358;27;20088;-37
2023/03/23 07:10:17;;;;;;;0.20;0.20;;;;;;;19.13;45.45;100048.28;5085804;28;20035;-38
2023/03/23 07:12:42;;;;;;;0.20;0.20;;;;;;;19.13;45.35;100045.50;5077763;28;20051;-37
2023/03/23 07:15:10;;;;;;;0.30;0.30;;;;;;;19.13;45.36;100040.00;5090656;28;20110;-37
2023/03/23 07:17:36;;;;;;;0.20;0.20;;;;;;;19.12;45.40;100043.84;5097665;28;20604;-37
2023/03/23 07:20:02;;;;;;;0.20;0.20;;;;;;;19.13;45.26;100051.03;5094715;28;20047;-37
2023/03/23 07:22:28;;;;;;;0.30;0.30;;;;;;;19.12;45.62;100051.31;5090386;28;20043;-37
2023/03/23 07:24:53;;;;;;;0.30;0.30;;;;;;;19.12;45.62;100046.63;5116351;28;20035;-39
2023/03/23 07:27:19;;;;;;;0.30;0.30;;;;;;;19.13;45.39;100050.19;5113885;28;20472;-37
2023/03/23 07:29:44;;;;;;;0.30;0.30;;;;;;;19.08;46.91;100053.84;5099279;28;20114;-37
2023/03/23 07:32:11;;;;;;;0.20;0.20;;;;;;;19.14;45.89;100055.44;5105046;28;20663;-37
2023/03/23 07:34:37;;;;;;;0.30;0.30;;;;;;;19.14;45.83;100047.16;5107994;28;20039;-39
2023/03/23 07:37:03;;;;;;;0.20;0.20;;;;;;;19.14;45.70;100041.63;5107139;28;20042;-37
2023/03/23 07:39:29;;;;;;;0.30;0.30;;;;;;;19.14;45.60;100049.91;5096333;28;20050;-37
2023/03/23 07:41:54;;;;;;;0.20;0.20;;;;;;;19.14;45.57;100044.38;5105130;28;20039;-37
2023/03/23 07:44:19;;;;;;;0.20;0.20;;;;;;;19.12;45.71;100046.63;5113526;28;20486;-37
2023/03/23 07:46:45;;;;;;;0.20;0.20;;;;;;;19.15;45.89;100051.53;5114315;28;20138;-37
2023/03/23 07:49:10;;;;;;;0.20;0.20;;;;;;;19.16;46.36;100063.41;5104741;27;20310;-37
2023/03/23 07:51:39;;;;;;;0.20;0.20;;;;;;;19.19;45.68;100054.53;5087238;28;20573;-37
2023/03/23 07:54:04;;;;;;;;;;;;;;;19.18;45.68;100056.47;5106158;27;20055;-38
2023/03/23 07:56:31;;;;;;;0.25;0.25;;;;;;;19.18;45.77;100056.47;5090637;27;20287;-37
2023/03/23 07:58:56;;;;;;;0.20;0.20;;;;;;;19.18;45.70;100052.88;5086704;28;20315;-37
2023/03/23 08:01:23;;;;;;;0.20;0.20;;;;;;;19.19;46.64;100057.28;5078926;28;20043;-37
2023/03/23 08:03:49;;;;;;;0.32;0.32;;;;;;;19.21;45.94;100052.25;5084050;28;20164;-37
2023/03/23 08:06:15;;;;;;;0.20;0.20;;;;;;;19.20;46.11;100062.50;5087691;27;20291;-37
2023/03/23 08:08:40;;;;;;;0.20;0.20;;;;;;;19.22;45.88;100064.97;5090866;27;20178;-37
2023/03/23 08:11:06;;;;;;;0.20;0.20;;;;;;;19.21;45.98;100057.78;5092864;27;20047;-38
2023/03/23 08:13:33;;;;;;;0.30;0.30;;;;;;;19.21;45.96;100061.38;5080102;28;20120;-36
2023/03/23 08:16:00;;;;;;;0.20;0.20;;;;;;;19.20;45.99;100059.72;5084163;27;20142;-36
2023/03/23 08:18:26;;;;;;;0.30;0.30;;;;;;;19.21;45.95;100061.38;5085870;28;20180;-37
2023/03/23 08:20:53;;;;;;;0.20;0.20;;;;;;;19.22;46.17;100063.03;5103534;28;20054;-37
2023/03/23 08:23:19;;;;;;;0.20;0.20;;;;;;;19.22;45.79;100071.31;5106488;28;20289;-37
2023/03/23 08:25:44;;;;;;;0.20;0.20;;;;;;;19.22;45.72;100064.97;5101842;28;20073;-36
2023/03/23 08:28:09;;;;;;;0.20;0.20;;;;;;;19.22;46.08;100060.25;5101104;28;20050;-37
2023/03/23 08:30:37;;;;;;;0.20;0.20;;;;;;;19.23;45.79;100070.16;5107739;28;20144;-37
2023/03/23 08:33:04;;;;;;;0.20;0.20;;;;;;;19.24;46.06;100060.75;5091866;28;20043;-37
2023/03/23 08:35:30;;;;;;;0.30;0.30;;;;;;;19.24;45.59;100069.03;5086908;28;21094;-37
2023/03/23 08:37:57;;;;;;;0.20;0.20;;;;;;;19.24;45.95;100077.31;5101744;27;20490;-37
2023/03/23 08:40:23;;;;;;;0.30;0.30;;;;;;;19.25;45.61;100086.44;5104568;28;20554;-38
2023/03/23 08:42:49;;;;;;;0.20;0.20;;;;;;;19.25;45.65;100081.72;5086390;28;20051;-39
2023/03/23 08:45:19;;;;;;;0.20;0.20;;;;;;;19.26;45.86;100079.81;5102213;27;20677;-37
2023/03/23 08:47:44;;;;;;;0.20;0.20;;;;;;;19.25;45.75;100080.91;5069410;28;20347;-37
2023/03/23 08:50:14;;;;;;;0.30;0.30;;;;;;;19.27;45.80;100092.47;5087934;28;20046;-37
2023/03/23 08:52:41;;;;;;;0.20;0.20;;;;;;;19.26;45.91;100090.84;5107672;27;20426;-38
2023/03/23 08:55:08;;;;;;;0.30;0.30;;;;;;;19.27;45.61;100089.72;5070921;28;20094;-37
2023/03/23 08:57:34;;;;;;;0.30;0.30;;;;;;;19.27;45.58;100081.44;5099581;27;20477;-37
2023/03/23 09:00:08;;;;;;;0.30;0.30;;;;;;;19.28;45.62;100083.88;5085309;27;20036;-37
2023/03/23 09:02:34;;;;;;;0.20;0.20;;;;;;;19.28;45.71;100085.81;5096472;27;20050;-37
2023/03/23 09:05:01;;;;;;;0.30;0.30;;;;;;;19.28;45.95;100088.59;5094663;27;20533;-38
2023/03/23 09:07:26;;;;;;;0.30;0.30;;;;;;;19.28;45.44;100096.88;5090878;27;20414;-37
2023/03/23 09:09:52;;;;;;;0.20;0.20;;;;;;;19.28;45.79;100086.66;5094882;28;20039;-37
2023/03/23 09:12:18;;;;;;;0.20;0.20;;;;;;;19.29;45.93;100087.47;5094391;28;20528;-37
2023/03/23 09:14:43;;;;;;;0.20;0.20;;;;;;;19.29;45.51;100088.28;5089741;27;20509;-37
2023/03/23 09:17:09;;;;;;;0.30;0.30;;;;;;;19.29;45.69;100088.28;5095372;27;20050;-37
2023/03/23 09:19:36;;;;;;;0.30;0.30;;;;;;;19.30;45.63;100078.09;5090924;27;20050;-37
2023/03/23 09:22:01;;;;;;;0.20;0.20;;;;;;;19.30;45.47;100084.41;5076119;28;20360;-37
2023/03/23 09:24:27;;;;;;;0.20;0.20;;;;;;;19.29;45.54;100088.28;5101541;28;20086;-37
2023/03/23 09:26:53;;;;;;;0.20;0.20;;;;;;;19.29;45.67;100091.03;5079732;28;20459;-37
2023/03/23 09:29:18;;;;;;;0.30;0.30;;;;;;;19.29;45.58;100085.50;5100493;27;20047;-38
2023/03/23 09:31:46;;;;;;;0.20;0.20;;;;;;;19.29;45.75;100090.22;5095025;28;20055;-37
2023/03/23 09:34:12;;;;;;;0.20;0.20;;;;;;;19.28;45.67;100105.97;5070499;28;20402;-36
2023/03/23 09:36:38;;;;;;;0.20;0.20;;;;;;;19.29;45.46;100104.03;5065694;28;20488;-36
2023/03/23 09:39:07;;;;;;;0.30;0.30;;;;;;;19.24;47.46;100106.88;5089038;27;20043;-37
2023/03/23 09:41:45;;;;;;;0.20;0.20;;;;;;;19.29;46.62;100102.06;5092225;27;20038;-37
2023/03/23 09:44:36;;;;;;;0.20;0.20;;;;;;;19.30;46.53;100105.69;5099065;28;20547;-39
2023/03/23 09:47:11;;;;;;;0.20;0.20;;;;;;;19.29;46.31;100110.38;5092417;28;20039;-37
2023/03/23 09:49:41;;;;;;;0.25;0.25;;;;;;;19.29;46.54;100115.88;5087736;28;20073;-37
2023/03/23 09:52:15;;;;;;;0.20;0.20;;;;;;;19.29;46.04;100124.16;5080417;28;20373;-37
2023/03/23 09:54:43;;;;;;;0.30;0.30;;;;;;;19.28;46.13;100147.38;5100170;28;20601;-37
2023/03/23 09:57:22;;;;;;;0.20;0.20;;;;;;;19.30;46.14;100161.72;5088793;28;20075;-37
2023/03/23 09:59:54;;;;;;;0.20;0.20;;;;;;;19.29;46.43;100165.56;5100757;27;20035;-37
2023/03/23 10:02:27;;;;;;;0.20;0.20;;;;;;;19.30;46.42;100166.41;5098742;27;20424;-37
2023/03/23 10:04:55;;;;;;;0.25;0.25;;;;;;;19.31;46.33;100168.06;5091610;28;20050;-37
2023/03/23 10:07:22;;;;;;;;;;;;;;;19.32;46.03;100177.97;5087480;28;20088;-37
2023/03/23 10:09:51;;;;;;;0.20;0.20;;;;;;;19.30;45.96;100186.56;5083671;27;20000;-37
2023/03/23 10:12:38;;;;;;;0.20;0.20;;;;;;;19.30;46.07;100181.03;5084189;28;20043;-38
2023/03/23 10:15:23;;;;;;;0.20;0.20;;;;;;;19.31;46.22;100192.91;5092226;27;20051;-37
2023/03/23 10:17:57;;;;;;;0.20;0.20;;;;;;;19.31;45.94;100184.63;5089009;28;20423;-37
2023/03/23 10:20:47;;;;;;;0.20;0.20;;;;;;;19.32;45.94;100191.78;5102542;28;20040;-37
2023/03/23 10:23:53;;;;;;;0.20;0.20;;;;;;;19.33;46.09;100198.94;5068674;28;20615;-37
2023/03/23 10:26:28;;;;;;;0.20;0.20;;;;;;;19.31;46.33;100192.91;5075148;28;20173;-37
2023/03/23 10:28:58;;;;;;;0.20;0.20;;;;;;;19.31;46.14;100184.63;5102580;28;20286;-37
2023/03/23 10:31:43;;;;;;;0.20;0.20;;;;;;;19.33;46.05;100204.44;5080399;28;20047;-37
2023/03/23 10:34:13;;;;;;;0.20;0.20;;;;;;;19.11;48.11;100188.50;5080316;28;20376;-37
2023/03/23 10:36:51;;;;;;;0.30;0.30;;;;;;;19.27;47.14;100187.16;5094236;28;20051;-38
2023/03/23 10:39:19;;;;;;;0.30;0.30;;;;;;;19.30;47.00;100189.31;5090029;28;20035;-37
2023/03/23 10:41:45;;;;;;;0.30;0.30;;;;;;;19.32;46.76;100193.72;5067544;28;20699;-39
2023/03/23 10:44:16;;;;;;;0.20;0.20;;;;;;;19.23;48.41;100182.53;5083628;27;20053;-42
2023/03/23 10:47:02;;;;;;;0.20;0.20;;;;;;;19.17;48.82;100183.72;5084616;27;20059;-37
2023/03/23 10:49:34;;;;;;;0.20;0.20;;;;;;;19.28;47.54;100187.97;5085625;28;20441;-36
2023/03/23 10:52:24;;;;;;;0.30;0.30;;;;;;;19.31;47.41;100206.72;5106676;27;20059;-37
2023/03/23 10:55:12;;;;;;;0.20;0.20;;;;;;;19.33;47.22;100201.69;5091147;28;20043;-37
2023/03/23 10:57:39;;;;;;;0.20;0.20;;;;;;;19.34;47.04;100188.69;5077175;28;20753;-37
2023/03/23 11:00:28;;;;;;;0.20;0.20;;;;;;;19.35;47.14;100195.88;5095671;28;20201;-37
2023/03/23 11:08:25;;;;;;;0.20;0.20;;;;;;;19.42;46.71;100202.66;5133256;27;20943;-37
2023/03/23 11:10:54;;;;;;;0.20;0.20;;;;;;;19.42;46.56;100210.13;5098980;27;20446;-36
2023/03/23 11:13:23;;;;;;;0.20;0.20;;;;;;;19.40;46.74;100213.19;5098432;27;21442;-36
2023/03/23 11:15:49;;;;;;;0.20;0.20;;;;;;;19.39;46.65;100211.56;5096880;27;20054;-36
2023/03/23 11:18:26;;;;;;;0.20;0.20;;;;;;;19.37;46.81;100199.97;5097178;27;20055;-36
2023/03/23 11:20:56;;;;;;;0.25;0.25;;;;;;;19.38;46.77;100182.28;5105006;27;20043;-36
2023/03/23 11:23:41;;;;;;;0.20;0.20;;;;;;;19.37;46.83;100194.44;5116657;27;20038;-37
2023/03/23 11:26:15;;;;;;;0.20;0.20;;;;;;;19.38;46.66;100185.03;5102655;27;20035;-37
2023/03/23 11:28:56;;;;;;;0.20;0.20;;;;;;;19.37;47.12;100180.66;5106534;27;20074;-36
2023/03/23 11:31:25;;;;;;;0.20;0.20;;;;;;;19.38;46.72;100182.28;5093715;28;20043;-37
2023/03/23 11:33:54;;;;;;;0.30;0.30;;;;;;;19.38;46.72;100196.09;5086743;28;20043;-36
2023/03/23 11:36:20;;;;;;;0.22;0.22;;;;;;;19.38;46.48;100179.53;5105793;28;20047;-37
2023/03/23 11:38:45;;;;;;;0.20;0.20;;;;;;;19.40;46.74;100184.75;5104361;27;20054;-37
2023/03/23 11:41:12;;;;;;;0.28;0.28;;;;;;;19.39;46.56;100177.59;5102351;27;20419;-36
2023/03/23 11:43:40;;;;;;;0.20;0.20;;;;;;;19.39;46.55;100186.72;5078088;28;20428;-37